Time;durP1;ratioP1;P1;durP2;ratioP2;P2;SDS_P1;SDS_P2;PMS_P1;PMS_P2;Temp;Humidity;BMP_temperature;BMP_pressure;BME280_temperature;BME280_humidity;BME280_pressure;Samples;Min_cycle;Max_cycle;Signal;HPM_P1;HPM_P2
2020/12/03 04:33:17;;;;;;;41.37;23.30;;;;;;;5.52;55.71;98129.06;6941603;23;20242;-79
2020/12/03 04:36:39;;;;;;;49.03;26.00;;;;;;;5.98;55.25;98136.56;6820292;29;20564;-79
2020/12/03 04:40:00;;;;;;;45.20;25.07;;;;;;;5.72;55.80;98136.28;6819775;29;20215;-79
2020/12/03 04:43:29;;;;;;;50.10;25.07;;;;;;;5.91;55.64;98116.97;6795459;29;20237;-79
2020/12/03 04:47:00;;;;;;;42.10;23.17;;;;;;;6.16;54.50;98091.44;6820482;29;20207;-80
2020/12/03 04:50:26;;;;;;;45.57;23.70;;;;;;;6.35;54.80;98132.72;6820523;29;20223;-79
2020/12/03 04:53:55;;;;;;;42.37;23.90;;;;;;;6.50;54.33;98128.94;6819648;29;20206;-79
2020/12/03 04:57:28;;;;;;;42.90;23.33;;;;;;;6.61;53.53;98123.03;6821096;29;20291;-80
2020/12/03 05:00:51;;;;;;;42.20;24.07;;;;;;;6.54;53.53;98114.13;6821175;29;20237;-79
2020/12/03 05:04:15;;;;;;;48.77;25.73;;;;;;;6.50;53.79;98134.31;6818220;29;20671;-78
2020/12/03 05:07:37;;;;;;;42.73;24.50;;;;;;;6.27;53.71;98117.66;6815735;29;20231;-79
2020/12/03 05:10:59;;;;;;;45.90;24.20;;;;;;;6.22;55.32;98125.44;6815325;29;20242;-79
2020/12/03 05:14:34;;;;;;;48.87;23.63;;;;;;;6.25;54.61;98127.72;6816373;29;20218;-79
2020/12/03 05:18:13;;;;;;;44.83;24.27;;;;;;;5.98;55.22;98114.31;6815546;29;20218;-79
2020/12/03 05:21:34;;;;;;;46.17;25.63;;;;;;;6.03;55.92;98114.56;6814911;29;20313;-79
2020/12/03 05:24:56;;;;;;;44.93;24.53;;;;;;;6.44;54.58;98108.31;6815637;29;20215;-79
2020/12/03 05:28:32;;;;;;;47.17;26.23;;;;;;;6.56;54.02;98098.72;6815846;29;20218;-79
2020/12/03 05:31:54;;;;;;;43.70;24.83;;;;;;;6.29;54.63;98079.97;6814553;29;20631;-79
2020/12/03 05:35:15;;;;;;;41.37;24.53;;;;;;;6.09;55.11;98076.34;6816276;29;20222;-79
2020/12/03 05:38:36;;;;;;;43.90;24.50;;;;;;;6.56;54.08;98101.38;6816666;29;20660;-79
2020/12/03 05:42:01;;;;;;;42.90;22.20;;;;;;;6.75;53.47;98091.78;6814861;29;20228;-78
2020/12/03 05:45:29;;;;;;;44.10;24.27;;;;;;;6.76;52.94;98082.72;6815078;29;20669;-79
2020/12/03 05:48:57;;;;;;;41.77;23.40;;;;;;;6.62;53.57;98087.22;6815948;29;20210;-80
2020/12/03 05:52:20;;;;;;;46.13;24.43;;;;;;;6.30;53.85;98071.75;6815357;29;20815;-78
2020/12/03 05:55:41;;;;;;;44.80;24.43;;;;;;;6.28;53.67;98052.41;6816123;29;20673;-79
2020/12/03 05:59:14;;;;;;;45.23;25.10;;;;;;;6.66;53.65;98060.84;6813447;29;20196;-78
2020/12/03 06:02:42;;;;;;;46.70;24.93;;;;;;;6.52;53.59;98059.09;6813993;29;20222;-78
2020/12/03 06:06:31;;;;;;;46.47;24.87;;;;;;;6.10;55.05;98062.78;6813883;29;20193;-78
2020/12/03 06:10:08;;;;;;;43.53;24.97;;;;;;;5.28;58.34;98062.59;6768216;29;20204;-78
2020/12/03 06:13:45;;;;;;;49.70;26.50;;;;;;;4.99;59.38;98060.88;6787811;29;20237;-78
2020/12/03 06:17:31;;;;;;;44.63;24.70;;;;;;;5.84;57.66;98043.84;6786918;29;20208;-79
2020/12/03 06:21:02;;;;;;;41.87;23.27;;;;;;;5.25;57.22;97962.28;6815567;29;20234;-79
2020/12/03 06:24:33;;;;;;;38.83;21.40;;;;;;;6.49;55.82;98044.25;6820029;29;20645;-79
2020/12/03 06:28:21;;;;;;;33.83;20.17;;;;;;;6.17;55.96;98018.16;6820692;29;20191;-80
2020/12/03 06:32:03;;;;;;;35.63;19.63;;;;;;;5.76;56.36;98011.84;6838009;29;20233;-79
2020/12/03 06:35:33;;;;;;;36.50;19.33;;;;;;;5.43;57.57;98042.81;6816233;29;20198;-80
2020/12/03 06:39:23;;;;;;;34.00;19.73;;;;;;;5.92;56.46;98040.19;6815183;29;20200;-80
2020/12/03 06:42:48;;;;;;;27.40;17.77;;;;;;;6.29;55.02;98029.94;6813179;29;20215;-80
2020/12/03 06:46:51;;;;;;;28.73;17.73;;;;;;;6.01;55.36;98039.03;6813918;29;20204;-80
2020/12/03 06:50:29;;;;;;;27.33;16.10;;;;;;;6.57;53.65;98041.44;6747547;29;20217;-80
2020/12/03 06:54:20;;;;;;;27.80;17.10;;;;;;;6.84;53.10;98032.47;6815230;29;20281;-80
2020/12/03 06:58:13;;;;;;;32.63;18.90;;;;;;;6.83;53.84;98030.84;6814311;29;20220;-79
2020/12/03 07:02:05;;;;;;;38.73;22.37;;;;;;;6.71;54.45;98031.63;6814179;29;20696;-80
2020/12/03 07:05:48;;;;;;;34.07;20.20;;;;;;;6.44;55.65;98025.31;6814827;29;20195;-80
2020/12/03 07:09:37;;;;;;;35.37;20.37;;;;;;;6.77;54.88;98031.63;6814798;29;20199;-80
2020/12/03 07:13:20;;;;;;;25.57;17.83;;;;;;;6.65;53.56;97985.03;6819707;29;20242;-80
2020/12/03 07:17:03;;;;;;;28.63;17.13;;;;;;;7.11;52.93;98010.13;6818020;29;20793;-79
2020/12/03 07:20:56;;;;;;;23.87;15.40;;;;;;;6.85;52.66;98026.09;6801518;29;20218;-80
2020/12/03 07:24:22;;;;;;;23.23;14.87;;;;;;;6.67;53.40;98025.81;6790839;29;20210;-80
2020/12/03 07:28:03;;;;;;;21.83;15.07;;;;;;;6.80;52.99;98020.53;6816558;29;20223;-80
2020/12/03 07:31:31;;;;;;;23.27;15.23;;;;;;;6.61;53.31;97989.13;6815445;29;20232;-80
2020/12/03 07:35:00;;;;;;;24.53;15.77;;;;;;;7.17;52.64;98021.88;6816683;29;20215;-80
2020/12/03 07:38:30;;;;;;;24.03;15.73;;;;;;;6.77;53.59;98002.16;6816130;29;20206;-81
2020/12/03 07:41:55;;;;;;;24.77;15.83;;;;;;;6.78;53.26;97995.78;6815887;29;20302;-81
2020/12/03 07:45:37;;;;;;;25.07;16.67;;;;;;;7.00;53.38;98020.56;6816072;29;20258;-81
2020/12/03 07:49:00;;;;;;;26.33;16.37;;;;;;;7.12;52.97;97984.13;6816568;29;20211;-80
2020/12/03 07:52:27;;;;;;;25.30;15.90;;;;;;;7.30;52.72;98008.50;6815779;29;20242;-80
2020/12/03 07:55:49;;;;;;;24.67;15.57;;;;;;;7.25;52.31;97976.94;6816121;29;20219;-80
2020/12/03 07:59:30;;;;;;;25.03;15.27;;;;;;;7.40;51.84;97982.09;6815937;29;20209;-80
2020/12/03 08:02:52;;;;;;;23.87;15.07;;;;;;;7.20;52.40;97983.94;6814499;29;20225;-80
2020/12/03 08:06:17;;;;;;;24.73;16.13;;;;;;;7.18;52.34;97978.78;6816261;29;20217;-81
2020/12/03 08:09:38;;;;;;;22.80;15.53;;;;;;;7.17;52.26;97963.72;6820833;29;20295;-81
2020/12/03 08:13:16;;;;;;;27.67;17.13;;;;;;;7.25;52.78;97976.94;6819954;29;20592;-80
2020/12/03 08:16:42;;;;;;;25.47;16.87;;;;;;;7.02;53.84;97981.03;6820765;29;20217;-80
2020/12/03 08:20:23;;;;;;;25.60;15.67;;;;;;;7.34;53.06;97969.53;6820992;29;20664;-81
2020/12/03 08:23:51;;;;;;;24.60;16.73;;;;;;;7.31;51.71;97935.91;6819927;29;20257;-80
2020/12/03 08:27:20;;;;;;;29.43;18.10;;;;;;;7.31;52.65;97948.50;6820475;29;20209;-81
2020/12/03 08:30:42;;;;;;;27.87;19.27;;;;;;;7.32;52.72;97968.91;6803976;29;20230;-81
2020/12/03 08:34:04;;;;;;;28.03;18.83;;;;;;;7.09;53.48;97971.13;6820606;29;20195;-81
2020/12/03 08:37:25;;;;;;;30.10;18.67;;;;;;;6.97;53.56;97952.16;6819329;29;20211;-84
2020/12/03 08:40:48;;;;;;;28.10;17.67;;;;;;;6.54;54.27;97920.53;6819399;29;20234;-83
2020/12/03 08:44:14;;;;;;;25.90;17.90;;;;;;;6.95;54.80;97958.75;6818000;29;20345;-81
2020/12/03 08:47:42;;;;;;;27.30;17.77;;;;;;;7.06;54.80;97934.00;6817992;29;20198;-80
2020/12/03 08:51:06;;;;;;;25.33;17.87;;;;;;;6.94;54.25;97938.31;6817923;29;20598;-80
2020/12/03 08:54:30;;;;;;;28.57;18.10;;;;;;;6.93;54.16;97945.56;6816962;29;20203;-82
2020/12/03 08:57:55;;;;;;;27.00;18.00;;;;;;;7.03;53.90;97934.44;6818574;29;20204;-80
2020/12/03 09:01:18;;;;;;;25.63;16.53;;;;;;;6.94;53.58;97928.44;6816437;29;20714;-80
2020/12/03 09:04:45;;;;;;;28.13;18.13;;;;;;;7.12;53.95;97938.56;6811403;29;20204;-80
2020/12/03 09:08:08;;;;;;;27.10;17.33;;;;;;;7.09;53.45;97928.25;6816142;29;20201;-82
2020/12/03 09:11:32;;;;;;;24.17;16.33;;;;;;;7.07;53.46;97909.69;6816907;29;20264;-80
2020/12/03 09:14:54;;;;;;;24.80;15.93;;;;;;;6.72;53.97;97891.31;6818533;29;20219;-81
2020/12/03 09:18:15;;;;;;;23.60;15.97;;;;;;;6.68;54.38;97887.38;6815093;29;20214;-80
2020/12/03 09:21:38;;;;;;;25.43;16.73;;;;;;;6.47;54.99;97887.53;6817244;29;20229;-81
2020/12/03 09:25:00;;;;;;;22.47;15.30;;;;;;;6.72;54.55;97910.88;6817542;29;20211;-80
2020/12/03 09:28:22;;;;;;;23.33;13.97;;;;;;;6.70;54.55;97899.53;6816513;29;20221;-80
2020/12/03 09:31:43;;;;;;;23.20;15.97;;;;;;;6.91;53.62;97904.75;6816052;29;20246;-80
2020/12/03 09:35:05;;;;;;;21.57;14.43;;;;;;;7.00;53.14;97882.06;6815479;29;20211;-80
2020/12/03 09:38:26;;;;;;;19.97;13.90;;;;;;;7.15;52.36;97893.44;6815255;29;20208;-80
2020/12/03 09:41:48;;;;;;;21.40;14.37;;;;;;;7.35;52.59;97886.22;6815039;29;20235;-80
2020/12/03 09:45:12;;;;;;;23.20;14.80;;;;;;;7.66;51.45;97872.16;6815412;29;20676;-80
2020/12/03 09:48:33;;;;;;;24.47;15.77;;;;;;;7.63;51.42;97867.19;6815522;29;20237;-80
2020/12/03 09:51:55;;;;;;;21.10;14.47;;;;;;;7.85;50.69;97857.84;6814684;29;20628;-80
2020/12/03 09:55:16;;;;;;;20.47;13.93;;;;;;;8.03;49.46;97856.16;6815535;29;20217;-80
2020/12/03 09:58:38;;;;;;;18.53;13.17;;;;;;;7.66;50.14;97819.31;6794906;29;20211;-79
2020/12/03 10:02:28;;;;;;;18.77;12.87;;;;;;;7.84;50.15;97838.25;6790543;29;20244;-80
2020/12/03 10:06:00;;;;;;;19.93;13.90;;;;;;;7.71;50.62;97830.22;6790960;29;20605;-80
2020/12/03 10:09:29;;;;;;;28.70;16.43;;;;;;;7.31;49.91;97721.44;6790299;29;20285;-80
2020/12/03 10:13:03;;;;;;;23.77;15.43;;;;;;;7.78;50.99;97808.75;6802838;29;20238;-80
2020/12/03 10:16:28;;;;;;;20.50;13.73;;;;;;;7.63;50.60;97806.34;6806507;29;20243;-80
2020/12/03 10:19:50;;;;;;;18.43;13.37;;;;;;;7.57;50.58;97801.81;6816405;29;20213;-80
2020/12/03 10:23:19;;;;;;;16.77;11.77;;;;;;;8.04;49.28;97782.66;6817697;29;20578;-80
2020/12/03 10:26:48;;;;;;;17.53;12.40;;;;;;;8.29;48.99;97772.84;6817216;29;20193;-80
2020/12/03 10:30:12;;;;;;;20.20;13.60;;;;;;;8.35;48.38;97763.06;6815394;29;20239;-81
2020/12/03 10:33:35;;;;;;;18.30;12.47;;;;;;;8.23;48.34;97757.59;6816910;29;20223;-81
2020/12/03 10:37:00;;;;;;;19.07;13.50;;;;;;;8.42;48.89;97758.50;6816945;29;20230;-80
2020/12/03 10:40:21;;;;;;;20.57;13.67;;;;;;;8.44;47.86;97733.06;6818234;29;20210;-80
2020/12/03 10:43:45;;;;;;;19.47;13.13;;;;;;;8.45;47.95;97750.00;6819899;29;20215;-80
2020/12/03 10:47:12;;;;;;;19.93;14.37;;;;;;;8.16;48.57;97719.19;6819700;29;20703;-80
2020/12/03 10:50:56;;;;;;;20.47;14.03;;;;;;;8.71;47.78;97734.50;6822218;29;20761;-80
2020/12/03 10:54:18;;;;;;;18.17;13.43;;;;;;;8.40;47.39;97696.94;6822804;29;20209;-80
2020/12/03 10:57:43;;;;;;;20.13;12.70;;;;;;;8.27;46.92;97720.38;6828523;29;20206;-80
2020/12/03 11:01:08;;;;;;;16.20;11.80;;;;;;;8.37;47.36;97713.47;6825827;29;20306;-81
2020/12/03 11:04:31;;;;;;;16.40;11.47;;;;;;;8.24;47.85;97710.09;6822881;29;20205;-81
2020/12/03 11:07:54;;;;;;;17.03;11.90;;;;;;;8.17;48.30;97723.50;6808837;29;20313;-81
2020/12/03 11:11:16;;;;;;;13.57;11.37;;;;;;;8.59;46.44;97701.34;6798655;29;20237;-81
2020/12/03 11:14:37;;;;;;;16.07;11.53;;;;;;;8.77;46.83;97712.13;6821628;29;20213;-81
2020/12/03 11:18:03;;;;;;;13.87;10.67;;;;;;;8.83;46.38;97700.50;6807475;29;20215;-81
2020/12/03 11:21:28;;;;;;;15.47;10.97;;;;;;;8.63;46.26;97694.50;6821222;29;20231;-80
2020/12/03 11:24:52;;;;;;;14.73;10.63;;;;;;;8.78;46.11;97686.91;6819001;29;20206;-81
2020/12/03 11:28:30;;;;;;;16.50;11.37;;;;;;;8.47;46.14;97691.50;6820482;29;20244;-81
2020/12/03 11:31:56;;;;;;;15.07;10.30;;;;;;;8.70;46.06;97668.38;6820933;29;20244;-81
2020/12/03 11:35:22;;;;;;;14.17;10.60;;;;;;;8.67;45.83;97663.44;6822266;29;20671;-81
2020/12/03 11:38:51;;;;;;;24.90;14.93;;;;;;;8.51;45.84;97650.59;6823166;29;20221;-81
2020/12/03 11:42:33;;;;;;;14.80;10.07;;;;;;;8.55;45.76;97659.81;6822350;29;20659;-81
2020/12/03 11:49:45;;;;;;;16.87;9.27;;;;;;;8.33;44.78;97602.19;6826616;29;20707;-82
2020/12/03 11:53:06;;;;;;;12.23;8.90;;;;;;;8.76;44.14;97635.25;6830232;29;20677;-81
2020/12/03 11:56:28;;;;;;;12.70;8.50;;;;;;;8.98;43.61;97641.03;6827755;29;20202;-80
2020/12/03 11:59:50;;;;;;;11.37;8.57;;;;;;;8.74;44.58;97623.91;6824805;29;20214;-80
2020/12/03 12:03:14;;;;;;;8.50;7.60;;;;;;;8.79;43.51;97618.66;6821976;29;20228;-80
2020/12/03 12:06:42;;;;;;;10.03;8.00;;;;;;;8.89;42.66;97623.56;6823396;29;20265;-80
2020/12/03 12:10:14;;;;;;;9.83;6.80;;;;;;;9.32;42.23;97619.72;6825332;29;20236;-80
2020/12/03 12:13:36;;;;;;;9.80;7.30;;;;;;;9.03;42.06;97596.31;6810368;29;20239;-80
2020/12/03 12:16:58;;;;;;;9.80;6.97;;;;;;;9.07;41.86;97606.38;6799938;29;20255;-80
2020/12/03 12:20:20;;;;;;;9.83;7.30;;;;;;;9.15;42.65;97584.56;6821229;29;20229;-81
2020/12/03 12:23:41;;;;;;;10.30;6.90;;;;;;;8.71;42.25;97530.31;6825290;29;20216;-80
2020/12/03 12:27:02;;;;;;;9.87;6.93;;;;;;;8.73;43.24;97544.31;6826950;29;20244;-80
2020/12/03 12:30:24;;;;;;;8.67;6.63;;;;;;;9.05;43.07;97551.19;6817980;29;20220;-80
2020/12/03 12:33:46;;;;;;;10.37;7.00;;;;;;;8.98;43.36;97541.56;6798198;29;20236;-80
2020/12/03 12:37:07;;;;;;;9.00;6.73;;;;;;;8.68;42.78;97546.06;6792529;29;20225;-79
2020/12/03 12:40:28;;;;;;;8.33;6.50;;;;;;;8.76;43.00;97549.28;6804522;29;20663;-79
2020/12/03 12:43:49;;;;;;;8.17;6.37;;;;;;;9.18;42.81;97538.41;6818299;29;20206;-80
2020/12/03 12:47:10;;;;;;;8.73;6.57;;;;;;;8.56;42.70;97539.78;6817397;29;20212;-79
2020/12/03 12:50:32;;;;;;;10.77;6.77;;;;;;;8.91;42.41;97509.38;6815824;29;20224;-79
2020/12/03 12:53:53;;;;;;;8.37;6.20;;;;;;;9.10;42.68;97517.19;6815739;29;20596;-78
2020/12/03 12:57:14;;;;;;;12.90;6.97;;;;;;;9.19;42.77;97515.84;6816152;29;20217;-79
2020/12/03 13:00:36;;;;;;;9.13;7.10;;;;;;;8.55;43.33;97509.41;6816556;29;20251;-79
2020/12/03 13:03:57;;;;;;;9.37;7.03;;;;;;;7.64;45.25;97483.44;6816609;29;20210;-79
2020/12/03 13:07:19;;;;;;;7.77;6.57;;;;;;;8.18;44.38;97504.19;6816218;29;20213;-79
2020/12/03 13:10:41;;;;;;;11.10;6.83;;;;;;;8.02;45.27;97492.16;6815456;29;20710;-79
2020/12/03 13:14:06;;;;;;;8.60;6.83;;;;;;;7.75;45.70;97493.44;6815988;29;20210;-79
2020/12/03 13:17:27;;;;;;;8.20;6.80;;;;;;;8.20;45.11;97489.53;6815603;29;20287;-79
2020/12/03 13:20:48;;;;;;;12.27;6.80;;;;;;;7.63;45.90;97491.69;6815527;29;20618;-79
2020/12/03 13:24:10;;;;;;;10.13;6.87;;;;;;;7.82;46.37;97501.44;6815908;29;20693;-80
2020/12/03 13:27:32;;;;;;;8.47;7.60;;;;;;;7.74;46.59;97477.56;6816290;29;20221;-79
2020/12/03 13:30:53;;;;;;;10.17;6.37;;;;;;;8.52;45.72;97488.38;6815000;29;20240;-79
2020/12/03 13:34:14;;;;;;;10.73;7.23;;;;;;;8.77;44.43;97467.59;6815548;29;20221;-79
2020/12/03 13:37:35;;;;;;;11.73;6.50;;;;;;;8.45;45.64;97479.59;6815869;29;20671;-79
2020/12/03 13:40:57;;;;;;;10.33;7.57;;;;;;;7.71;46.87;97484.19;6814657;29;20231;-79
2020/12/03 13:44:18;;;;;;;8.73;7.03;;;;;;;7.94;46.43;97451.38;6815379;29;20208;-79
2020/12/03 13:47:40;;;;;;;9.23;6.97;;;;;;;7.78;47.46;97458.13;6814755;29;20224;-79
2020/12/03 13:51:01;;;;;;;10.50;7.43;;;;;;;7.36;49.09;97439.31;6814123;29;20329;-79
2020/12/03 13:54:22;;;;;;;9.50;7.43;;;;;;;6.95;49.94;97447.81;6814961;29;20214;-79
2020/12/03 13:57:44;;;;;;;10.83;7.90;;;;;;;6.66;50.51;97437.69;6815545;29;20206;-80
2020/12/03 14:01:05;;;;;;;8.87;7.30;;;;;;;6.78;50.47;97414.53;6814026;29;20219;-79
2020/12/03 14:04:26;;;;;;;8.83;7.53;;;;;;;6.19;52.38;97422.03;6815504;29;20219;-79
2020/12/03 14:07:48;;;;;;;8.57;6.83;;;;;;;6.34;51.66;97401.19;6815627;29;20633;-79
2020/12/03 14:11:09;;;;;;;9.03;7.10;;;;;;;6.62;51.16;97409.72;6814293;29;20263;-79
2020/12/03 14:14:31;;;;;;;7.83;6.43;;;;;;;6.69;51.27;97399.78;6815269;29;20211;-79
2020/12/03 14:17:52;;;;;;;12.37;7.60;;;;;;;6.34;52.11;97406.53;6814939;29;20223;-79
2020/12/03 14:21:13;;;;;;;11.23;6.83;;;;;;;6.38;52.02;97388.19;6813912;29;20594;-80
2020/12/03 14:24:35;;;;;;;9.03;7.10;;;;;;;7.14;51.21;97377.19;6814723;29;20216;-79
2020/12/03 14:27:56;;;;;;;8.03;6.83;;;;;;;8.25;48.66;97379.63;6814337;29;20217;-79
2020/12/03 14:31:18;;;;;;;9.10;7.10;;;;;;;7.93;48.72;97369.22;6812960;29;20694;-79
2020/12/03 14:34:39;;;;;;;10.33;7.50;;;;;;;7.67;49.61;97383.72;6814302;29;20689;-79
2020/12/03 14:38:00;;;;;;;10.43;7.80;;;;;;;8.13;48.78;97381.38;6814153;29;20209;-79
2020/12/03 14:41:22;;;;;;;9.93;7.23;;;;;;;8.33;47.86;97373.97;6815434;29;20228;-80
2020/12/03 14:44:43;;;;;;;11.60;7.90;;;;;;;8.71;47.34;97368.31;6819681;29;20309;-77
2020/12/03 14:48:05;;;;;;;9.37;7.47;;;;;;;8.34;47.83;97345.22;6815789;29;20211;-79
2020/12/03 14:51:46;;;;;;;11.57;8.17;;;;;;;8.66;47.44;97354.72;6813365;29;20236;-78
2020/12/03 14:55:08;;;;;;;13.07;8.47;;;;;;;8.94;46.99;97345.00;6708185;29;20432;-79
2020/12/03 14:58:31;;;;;;;14.77;9.07;;;;;;;8.96;47.45;97360.91;6706484;29;20352;-79
2020/12/03 15:01:52;;;;;;;13.20;9.13;;;;;;;8.93;47.81;97346.84;6705415;29;20307;-79
2020/12/03 15:05:14;;;;;;;11.53;8.43;;;;;;;9.00;47.39;97346.75;6706638;29;20208;-79
2020/12/03 15:08:36;;;;;;;16.97;9.77;;;;;;;8.87;47.50;97348.81;6706408;29;20775;-78
2020/12/03 15:11:57;;;;;;;13.40;10.27;;;;;;;8.65;48.44;97340.47;6705934;29;20278;-79
2020/12/03 15:15:18;;;;;;;16.00;11.73;;;;;;;8.21;49.34;97314.03;6706913;29;20227;-78
2020/12/03 15:18:39;;;;;;;13.43;9.67;;;;;;;8.38;49.04;97323.06;6706646;29;20209;-79
2020/12/03 15:22:01;;;;;;;17.73;10.87;;;;;;;8.29;49.25;97315.56;6705902;29;20235;-79
2020/12/03 15:25:23;;;;;;;16.37;11.07;;;;;;;8.23;49.19;97313.78;6706120;29;20217;-79
2020/12/03 15:28:44;;;;;;;16.07;10.43;;;;;;;8.04;49.95;97298.72;6706211;29;20220;-79
2020/12/03 15:32:05;;;;;;;13.37;9.67;;;;;;;8.28;49.51;97287.06;6760461;29;20239;-78
2020/12/03 15:35:26;;;;;;;14.50;10.47;;;;;;;8.14;49.58;97294.44;6802630;29;20213;-78
2020/12/03 15:38:48;;;;;;;13.27;9.13;;;;;;;8.20;49.42;97282.84;6813465;29;20217;-78
2020/12/03 15:42:12;;;;;;;15.50;11.07;;;;;;;8.14;49.18;97278.34;6817107;29;20225;-79
2020/12/03 15:45:33;;;;;;;13.83;10.00;;;;;;;8.18;49.22;97276.03;6815975;29;20273;-78
2020/12/03 15:48:54;;;;;;;12.43;8.90;;;;;;;8.18;49.28;97276.84;6813720;29;20206;-78
2020/12/03 15:52:15;;;;;;;14.67;11.03;;;;;;;8.30;48.77;97261.63;6811811;29;20229;-79
2020/12/03 15:55:37;;;;;;;14.83;10.07;;;;;;;8.27;48.48;97264.78;6811216;29;20215;-77
2020/12/03 15:58:59;;;;;;;15.37;10.20;;;;;;;8.22;48.70;97259.28;6811477;29;20221;-78
2020/12/03 16:02:20;;;;;;;14.13;10.70;;;;;;;8.11;48.56;97225.13;6813114;29;20229;-79
2020/12/03 16:05:41;;;;;;;16.57;11.43;;;;;;;8.17;48.29;97250.22;6816067;29;20214;-80
2020/12/03 16:09:03;;;;;;;14.90;11.07;;;;;;;7.89;49.46;97260.75;6822365;29;20220;-80
2020/12/03 16:12:25;;;;;;;16.57;11.13;;;;;;;7.48;49.84;97250.69;6813674;29;20238;-80
2020/12/03 16:15:47;;;;;;;20.23;10.93;;;;;;;7.39;50.30;97251.22;6812586;29;20222;-79
2020/12/03 16:19:08;;;;;;;14.20;10.30;;;;;;;7.34;50.74;97251.03;6811053;29;20205;-79
2020/12/03 16:22:29;;;;;;;15.40;11.37;;;;;;;6.23;53.73;97240.47;6810766;29;20240;-79
2020/12/03 16:25:50;;;;;;;19.07;13.83;;;;;;;6.56;53.31;97244.56;6810899;29;20221;-79
2020/12/03 16:29:12;;;;;;;14.97;10.70;;;;;;;6.76;52.53;97242.53;6801871;29;20224;-79
2020/12/03 16:32:36;;;;;;;13.47;10.13;;;;;;;6.70;52.33;97226.53;6813152;29;20230;-79
2020/12/03 16:35:57;;;;;;;12.47;9.90;;;;;;;6.75;51.57;97224.00;6815354;29;20209;-79
2020/12/03 16:39:21;;;;;;;10.97;9.40;;;;;;;6.70;51.88;97194.38;6813244;29;20209;-79
2020/12/03 16:42:42;;;;;;;12.07;9.50;;;;;;;6.84;51.54;97209.31;6815082;29;20234;-79
2020/12/03 16:46:05;;;;;;;12.23;8.83;;;;;;;7.15;50.71;97218.06;6814818;29;20211;-80
2020/12/03 16:49:26;;;;;;;10.33;8.63;;;;;;;7.27;49.68;97212.78;6816683;29;20201;-79
2020/12/03 16:52:47;;;;;;;12.60;8.83;;;;;;;7.24;50.02;97203.31;6815688;29;20242;-79
2020/12/03 16:56:12;;;;;;;10.47;8.57;;;;;;;7.04;50.28;97191.19;6816370;29;20212;-79
2020/12/03 16:59:33;;;;;;;9.53;8.33;;;;;;;6.96;50.14;97184.25;6815976;29;20210;-80
2020/12/03 17:02:55;;;;;;;14.77;9.93;;;;;;;6.66;50.88;97185.97;6816742;29;20236;-80
2020/12/03 17:06:16;;;;;;;11.03;9.10;;;;;;;6.76;50.77;97175.59;6817997;29;20213;-79
2020/12/03 17:09:37;;;;;;;11.40;9.00;;;;;;;6.70;51.32;97170.28;6817146;29;20210;-79
2020/12/03 17:12:58;;;;;;;11.90;9.10;;;;;;;6.60;51.36;97162.75;6816757;29;20230;-80
2020/12/03 17:16:20;;;;;;;12.50;9.97;;;;;;;6.33;51.69;97126.56;6816391;29;20208;-79
2020/12/03 17:19:42;;;;;;;27.60;17.03;;;;;;;6.77;51.02;97144.28;6816106;29;20693;-79
2020/12/03 17:23:03;;;;;;;21.73;14.77;;;;;;;6.65;51.14;97132.63;6816839;29;20236;-80
2020/12/03 17:26:24;;;;;;;12.70;10.40;;;;;;;6.57;51.48;97119.56;6818026;29;20211;-79
2020/12/03 17:29:45;;;;;;;14.17;10.00;;;;;;;6.55;50.60;97094.88;6816676;29;20212;-79
2020/12/03 17:33:06;;;;;;;12.83;10.30;;;;;;;6.38;51.05;97091.91;6819101;29;20238;-79
2020/12/03 17:36:28;;;;;;;12.90;9.90;;;;;;;7.10;49.76;97096.50;6820723;29;20206;-80
2020/12/03 17:39:50;;;;;;;30.17;21.60;;;;;;;7.28;48.99;97069.69;6819050;29;20592;-80
2020/12/03 17:43:11;;;;;;;14.73;11.63;;;;;;;7.50;48.46;97092.28;6820012;29;20238;-80
2020/12/03 17:46:32;;;;;;;13.70;11.67;;;;;;;7.50;48.66;97078.88;6823770;29;20217;-80
2020/12/03 17:49:53;;;;;;;14.40;11.73;;;;;;;7.26;48.95;97064.53;6822104;29;20220;-80
2020/12/03 17:53:15;;;;;;;14.10;11.20;;;;;;;7.17;48.79;97033.75;6819459;29;20236;-80
2020/12/03 17:56:49;;;;;;;15.93;11.97;;;;;;;6.71;49.90;97040.75;6821253;29;20205;-80
2020/12/03 18:00:11;;;;;;;15.43;11.50;;;;;;;6.95;50.16;97055.91;6817333;29;20212;-80
2020/12/03 18:03:32;;;;;;;18.33;12.77;;;;;;;7.18;49.85;97046.09;6817750;29;20798;-80
2020/12/03 18:06:54;;;;;;;15.47;12.60;;;;;;;7.09;49.59;97042.13;6817825;29;20212;-80
2020/12/03 18:10:16;;;;;;;14.53;11.57;;;;;;;7.09;49.69;97036.75;6815122;29;20553;-79
2020/12/03 18:13:37;;;;;;;18.63;11.70;;;;;;;7.06;49.67;97039.03;6818756;29;20233;-80
2020/12/03 18:16:58;;;;;;;20.37;14.90;;;;;;;6.96;49.50;97036.09;6802251;29;20213;-80
2020/12/03 18:20:19;;;;;;;21.97;17.30;;;;;;;7.19;49.72;97044.25;6794422;29;20214;-80
2020/12/03 18:23:41;;;;;;;21.30;16.07;;;;;;;6.55;50.57;97023.38;6789290;29;20210;-80
2020/12/03 18:27:03;;;;;;;18.10;13.30;;;;;;;6.52;50.71;97017.66;6808178;29;20220;-80
2020/12/03 18:30:24;;;;;;;20.60;17.37;;;;;;;7.00;50.30;97038.09;6805286;29;20207;-80
2020/12/03 18:33:45;;;;;;;17.00;13.87;;;;;;;7.15;49.66;97027.00;6820005;29;20214;-79
2020/12/03 18:37:07;;;;;;;13.93;11.33;;;;;;;7.11;49.66;97031.16;6819764;29;20258;-80
2020/12/03 18:40:28;;;;;;;23.10;16.60;;;;;;;6.82;49.72;97014.00;6819374;29;20212;-80
2020/12/03 18:43:50;;;;;;;20.63;15.13;;;;;;;6.62;50.76;97026.00;6819832;29;20206;-80
2020/12/03 18:47:12;;;;;;;17.97;12.13;;;;;;;6.43;51.28;97016.34;6821052;29;20572;-80
2020/12/03 18:50:33;;;;;;;23.60;16.97;;;;;;;6.31;51.33;97002.06;6819263;29;20232;-80
2020/12/03 18:53:54;;;;;;;26.67;18.43;;;;;;;6.44;51.56;96997.38;6813645;29;20629;-79
2020/12/03 18:57:16;;;;;;;31.33;20.30;;;;;;;6.16;52.12;96989.03;6836608;29;20689;-80
2020/12/03 19:00:38;;;;;;;24.60;15.83;;;;;;;6.07;52.95;96976.97;6821253;29;20243;-80
2020/12/03 19:04:03;;;;;;;17.13;12.27;;;;;;;6.31;52.54;96965.41;6821053;29;20215;-80
2020/12/03 19:07:26;;;;;;;17.07;12.60;;;;;;;6.46;52.04;96959.66;6822532;29;20213;-80
2020/12/03 19:10:47;;;;;;;18.37;13.20;;;;;;;6.46;52.19;96954.31;6823316;29;20239;-80
2020/12/03 19:14:11;;;;;;;17.97;13.07;;;;;;;6.45;52.38;96956.19;6825213;29;20238;-83
2020/12/03 19:17:33;;;;;;;20.00;13.63;;;;;;;6.25;53.12;96934.19;6821879;29;20231;-80
2020/12/03 19:20:54;;;;;;;18.37;14.60;;;;;;;6.29;53.02;96939.91;6821202;29;20230;-80
2020/12/03 19:24:15;;;;;;;24.37;15.50;;;;;;;6.39;52.29;96937.53;6822040;29;20569;-80
2020/12/03 19:27:39;;;;;;;20.00;14.67;;;;;;;6.46;52.87;96935.59;6821797;29;20332;-79
2020/12/03 19:31:00;;;;;;;18.57;13.00;;;;;;;6.44;52.68;96911.75;6820320;29;20372;-80
2020/12/03 19:34:22;;;;;;;21.10;15.93;;;;;;;5.87;53.84;96916.72;6822795;29;20227;-80
2020/12/03 19:37:43;;;;;;;18.27;14.23;;;;;;;6.23;53.33;96922.06;6822843;29;20213;-80
2020/12/03 19:41:05;;;;;;;19.23;13.97;;;;;;;6.28;53.04;96909.66;6812279;29;20732;-80
2020/12/03 19:44:26;;;;;;;16.63;12.77;;;;;;;6.46;52.30;96920.34;6826498;29;20255;-80
2020/12/03 19:47:48;;;;;;;16.70;13.03;;;;;;;6.50;51.62;96904.66;6846442;29;20210;-80
2020/12/03 19:51:11;;;;;;;16.43;12.03;;;;;;;6.35;52.17;96896.19;6823812;29;20246;-80
2020/12/03 19:54:33;;;;;;;15.30;11.67;;;;;;;6.19;52.08;96891.47;6819837;29;20224;-80
2020/12/03 19:57:54;;;;;;;15.07;12.33;;;;;;;6.36;51.90;96841.66;6821121;29;20215;-80
2020/12/03 20:01:16;;;;;;;15.47;11.67;;;;;;;6.96;50.43;96899.50;6820577;29;20233;-80
2020/12/03 20:04:37;;;;;;;16.33;12.00;;;;;;;5.52;52.65;96811.34;6825043;29;20236;-81
2020/12/03 20:08:01;;;;;;;15.00;11.20;;;;;;;6.55;51.21;96883.38;6826440;29;20570;-80
2020/12/03 20:11:22;;;;;;;15.50;11.93;;;;;;;6.96;50.24;96872.69;6826302;29;20250;-80
2020/12/03 20:14:43;;;;;;;17.27;11.90;;;;;;;7.12;49.97;96870.16;6825873;29;20235;-80
2020/12/03 20:18:04;;;;;;;17.00;12.37;;;;;;;7.29;49.29;96865.78;6825869;29;20213;-80
2020/12/03 20:21:26;;;;;;;15.73;11.33;;;;;;;6.56;50.54;96840.34;6824015;29;20696;-80
2020/12/03 20:24:48;;;;;;;18.70;13.33;;;;;;;6.98;50.20;96827.75;6822838;29;20204;-80
2020/12/03 20:28:09;;;;;;;13.33;11.07;;;;;;;6.96;49.84;96813.78;6825306;29;20249;-80
2020/12/03 20:31:30;;;;;;;16.40;11.20;;;;;;;6.85;49.70;96795.81;6823333;29;20248;-80
2020/12/03 20:34:52;;;;;;;19.27;12.00;;;;;;;6.96;50.08;96795.81;6824538;29;20215;-81